createdAt,value
2023-09-13T00:00:27.124Z,24.65
2023-09-13T00:02:53.665Z,24.65
2023-09-13T00:05:20.511Z,24.65
2023-09-13T00:07:47.108Z,24.64
2023-09-13T00:10:13.764Z,24.63
2023-09-13T00:12:40.444Z,24.63
2023-09-13T00:15:07.589Z,24.62
2023-09-13T00:17:34.529Z,24.62
2023-09-13T00:20:01.008Z,24.62
2023-09-13T00:22:27.492Z,24.61
2023-09-13T00:24:53.950Z,24.60
2023-09-13T00:27:20.332Z,24.60
2023-09-13T00:29:46.727Z,24.60
2023-09-13T00:32:13.181Z,24.59
2023-09-13T00:34:39.693Z,24.60
2023-09-13T00:37:06.226Z,24.59
2023-09-13T00:39:33.536Z,24.59
2023-09-13T00:42:00.029Z,24.60
2023-09-13T00:44:26.454Z,24.58
2023-09-13T00:46:53.138Z,24.59
2023-09-13T00:49:20.016Z,24.57
2023-09-13T00:51:46.620Z,24.55
2023-09-13T00:54:14.142Z,24.56
2023-09-13T00:56:42.710Z,24.53
2023-09-13T00:59:10.693Z,24.57
2023-09-13T01:01:37.438Z,24.54
2023-09-13T01:04:04.605Z,24.52
2023-09-13T01:06:32.427Z,24.52
2023-09-13T01:08:59.033Z,24.53
2023-09-13T01:11:26.352Z,24.53
2023-09-13T01:13:52.741Z,24.53
2023-09-13T01:16:38.597Z,24.52
2023-09-13T01:19:26.685Z,24.52
2023-09-13T01:22:11.070Z,24.53
2023-09-13T01:24:50.143Z,24.52
2023-09-13T01:27:44.610Z,24.51
2023-09-13T01:30:13.185Z,24.51
2023-09-13T01:32:39.613Z,24.50
2023-09-13T01:35:06.817Z,24.50
2023-09-13T01:37:33.982Z,24.49
2023-09-13T01:40:01.524Z,24.48
2023-09-13T01:42:31.268Z,24.48
2023-09-13T01:44:58.520Z,24.49
2023-09-13T01:47:26.456Z,24.48
2023-09-13T01:49:53.355Z,24.47
2023-09-13T01:52:20.083Z,24.46
2023-09-13T01:54:46.627Z,24.45
2023-09-13T01:57:13.142Z,24.46
2023-09-13T01:59:39.631Z,24.46
2023-09-13T02:02:06.136Z,24.44
2023-09-13T02:04:34.597Z,24.44
2023-09-13T02:07:04.898Z,24.45
2023-09-13T02:09:32.762Z,24.44
2023-09-13T02:11:59.294Z,24.43
2023-09-13T02:14:25.834Z,24.43
2023-09-13T02:16:52.353Z,24.42
2023-09-13T02:19:18.966Z,24.44
2023-09-13T02:21:46.595Z,24.42
2023-09-13T02:24:13.445Z,24.42
2023-09-13T02:26:41.176Z,24.41
2023-09-13T02:29:07.624Z,24.41
2023-09-13T02:31:34.232Z,24.41
2023-09-13T02:34:00.831Z,24.40
2023-09-13T02:36:27.264Z,24.39
2023-09-13T02:38:54.487Z,24.40
2023-09-13T02:41:21.105Z,24.38
2023-09-13T02:43:47.930Z,24.38
2023-09-13T02:46:14.660Z,24.38
2023-09-13T02:48:41.266Z,24.38
2023-09-13T02:51:14.903Z,24.37
2023-09-13T02:53:41.955Z,24.36
2023-09-13T02:56:09.500Z,24.35
2023-09-13T02:58:36.272Z,24.34
2023-09-13T03:01:05.135Z,24.34
2023-09-13T03:03:33.773Z,24.34
2023-09-13T03:06:13.921Z,24.35
2023-09-13T03:08:40.444Z,24.34
2023-09-13T03:11:14.449Z,24.34
2023-09-13T03:13:44.604Z,24.33
2023-09-13T03:16:22.471Z,24.33
2023-09-13T03:18:51.782Z,24.33
2023-09-13T03:21:21.678Z,24.32
2023-09-13T03:23:49.998Z,24.32
2023-09-13T03:26:20.546Z,24.32
2023-09-13T03:28:52.242Z,24.31
2023-09-13T03:31:20.953Z,24.31
2023-09-13T03:33:49.772Z,24.32
2023-09-13T03:36:17.345Z,24.31
2023-09-13T03:38:45.239Z,24.29
2023-09-13T03:41:14.122Z,24.29
2023-09-13T03:43:41.030Z,24.29
2023-09-13T03:46:08.555Z,24.29
2023-09-13T03:48:36.274Z,24.29
2023-09-13T03:51:04.429Z,24.28
2023-09-13T03:53:31.563Z,24.27
2023-09-13T03:55:58.450Z,24.27
2023-09-13T03:58:24.935Z,24.28
2023-09-13T04:00:51.499Z,24.28
2023-09-13T04:03:18.378Z,24.27
2023-09-13T04:05:45.032Z,24.26
2023-09-13T04:08:11.735Z,24.25
2023-09-13T04:10:38.652Z,24.24
2023-09-13T04:13:05.978Z,24.25
2023-09-13T04:15:33.078Z,24.24
2023-09-13T04:17:59.532Z,24.23
2023-09-13T04:20:26.037Z,24.23
2023-09-13T04:22:52.579Z,24.23
2023-09-13T04:25:19.440Z,24.24
2023-09-13T04:27:47.238Z,24.22
2023-09-13T04:30:15.514Z,24.21
2023-09-13T04:32:42.409Z,24.21
2023-09-13T04:35:09.419Z,24.22
2023-09-13T04:37:38.032Z,24.21
2023-09-13T04:40:06.652Z,24.21
2023-09-13T04:42:43.994Z,24.22
2023-09-13T04:45:10.596Z,24.21
2023-09-13T04:47:38.076Z,24.20
2023-09-13T04:50:06.198Z,24.19
2023-09-13T04:52:33.650Z,24.20
2023-09-13T04:55:00.080Z,24.20
2023-09-13T04:57:26.603Z,24.20
2023-09-13T04:59:53.663Z,24.19
2023-09-13T05:02:20.227Z,24.20
2023-09-13T05:04:46.920Z,24.19
2023-09-13T05:07:13.534Z,24.18
2023-09-13T05:09:41.350Z,24.17
2023-09-13T05:12:08.302Z,24.18
2023-09-13T05:14:37.367Z,24.17
2023-09-13T05:17:05.238Z,24.17
2023-09-13T05:19:32.416Z,24.17
2023-09-13T05:21:59.017Z,24.17
2023-09-13T05:24:25.546Z,24.16
2023-09-13T05:26:52.092Z,24.15
2023-09-13T05:29:18.552Z,24.14
2023-09-13T05:31:45.137Z,24.14
2023-09-13T05:34:11.706Z,24.14
2023-09-13T05:36:38.269Z,24.14
2023-09-13T05:39:04.872Z,24.12
2023-09-13T05:41:33.406Z,24.13
2023-09-13T05:43:59.835Z,24.14
2023-09-13T05:46:27.067Z,24.14
2023-09-13T05:48:53.800Z,24.12
2023-09-13T05:51:20.565Z,24.13
2023-09-13T05:53:47.316Z,24.12
2023-09-13T05:56:13.718Z,24.11
2023-09-13T05:58:44.541Z,24.12
2023-09-13T06:01:14.018Z,24.12
2023-09-13T06:03:40.790Z,24.12
2023-09-13T06:06:07.346Z,24.12
2023-09-13T06:08:34.955Z,24.12
2023-09-13T06:11:01.395Z,24.10
2023-09-13T06:13:28.057Z,24.10
2023-09-13T06:15:54.644Z,24.10
2023-09-13T06:18:21.240Z,24.11
2023-09-13T06:20:47.998Z,24.09
2023-09-13T06:23:40.282Z,24.09
2023-09-13T06:26:07.626Z,24.09
2023-09-13T06:28:35.027Z,24.09
2023-09-13T06:31:04.520Z,24.08
2023-09-13T06:36:02.104Z,24.05
2023-09-13T06:38:31.440Z,24.05
2023-09-13T06:40:58.988Z,24.06
2023-09-13T06:46:04.628Z,24.04
2023-09-13T06:48:33.309Z,24.03
2023-09-13T06:53:34.606Z,24.02
2023-09-13T06:56:05.165Z,24.02
2023-09-13T06:58:33.969Z,24.05
2023-09-13T07:03:34.875Z,24.00
2023-09-13T07:06:02.535Z,24.00
2023-09-13T07:08:29.053Z,24.00
2023-09-13T07:10:55.496Z,23.99
2023-09-13T07:13:22.098Z,23.99
2023-09-13T07:15:49.295Z,23.99
2023-09-13T07:18:16.206Z,23.99
2023-09-13T07:20:42.848Z,24.00
2023-09-13T07:23:10.334Z,23.99
2023-09-13T07:25:37.030Z,23.97
2023-09-13T07:28:04.201Z,23.97
2023-09-13T07:30:30.765Z,23.99
2023-09-13T07:32:57.407Z,23.98
2023-09-13T07:35:24.664Z,24.00
2023-09-13T07:37:51.377Z,24.00
2023-09-13T07:40:18.146Z,24.01
2023-09-13T07:42:44.738Z,24.02
2023-09-13T07:45:11.466Z,24.02
2023-09-13T07:47:38.099Z,24.03
2023-09-13T07:50:04.944Z,24.05
2023-09-13T07:52:42.561Z,24.04
2023-09-13T07:55:17.938Z,24.05
2023-09-13T07:57:44.403Z,24.07
2023-09-13T08:00:11.565Z,24.10
2023-09-13T08:02:38.046Z,24.13
2023-09-13T08:05:05.276Z,24.14
2023-09-13T08:07:31.933Z,24.13
2023-09-13T08:09:58.359Z,24.14
2023-09-13T08:12:24.852Z,24.14
2023-09-13T08:14:51.711Z,24.16
2023-09-13T08:17:18.257Z,24.17
2023-09-13T08:19:44.716Z,24.18
2023-09-13T08:22:12.858Z,24.19
2023-09-13T08:24:41.938Z,24.19
2023-09-13T08:27:08.421Z,24.20
2023-09-13T08:29:35.827Z,24.19
2023-09-13T08:32:02.374Z,24.21
2023-09-13T08:34:28.797Z,24.22
2023-09-13T08:36:57.102Z,24.26
2023-09-13T08:39:23.906Z,24.25
2023-09-13T08:41:54.567Z,24.28
2023-09-13T08:44:22.196Z,24.27
2023-09-13T08:46:57.986Z,24.30
2023-09-13T08:49:25.798Z,24.35
2023-09-13T08:51:54.070Z,24.37
2023-09-13T08:54:22.227Z,24.38
2023-09-13T08:56:48.933Z,24.40
2023-09-13T08:59:18.613Z,24.42
2023-09-13T09:01:50.265Z,24.46
2023-09-13T09:04:18.009Z,24.50
2023-09-13T09:06:44.854Z,24.57
2023-09-13T09:09:14.185Z,24.66
2023-09-13T09:11:48.337Z,24.73
2023-09-13T09:14:19.522Z,24.80
2023-09-13T09:16:48.951Z,24.87
2023-09-13T09:19:15.839Z,24.90
2023-09-13T09:21:42.578Z,24.93
2023-09-13T09:24:09.274Z,24.91
2023-09-13T09:26:35.715Z,24.97
2023-09-13T09:29:19.565Z,25.08
2023-09-13T09:31:46.789Z,25.10
2023-09-13T09:34:15.693Z,25.08
2023-09-13T09:36:43.881Z,25.04
2023-09-13T09:39:11.326Z,25.06
2023-09-13T09:41:39.508Z,25.07
2023-09-13T09:44:06.862Z,25.10
2023-09-13T09:46:34.829Z,25.17
2023-09-13T09:49:02.155Z,25.22
2023-09-13T09:51:29.917Z,25.22
2023-09-13T09:53:57.334Z,25.29
2023-09-13T09:56:24.070Z,25.32
2023-09-13T09:58:52.277Z,25.29
2023-09-13T10:01:19.816Z,25.24
2023-09-13T10:03:46.554Z,25.23
2023-09-13T10:06:15.116Z,25.25
2023-09-13T10:08:48.988Z,25.28
2023-09-13T10:11:18.756Z,25.25
2023-09-13T10:13:48.455Z,25.23
2023-09-13T10:16:17.504Z,25.19
2023-09-13T10:18:46.653Z,25.20
2023-09-13T10:21:15.226Z,25.31
2023-09-13T10:23:44.854Z,25.43
2023-09-13T10:26:14.627Z,25.51
2023-09-13T10:28:45.526Z,25.53
2023-09-13T10:31:20.893Z,25.61
2023-09-13T10:33:53.185Z,25.70
2023-09-13T10:36:39.777Z,25.81
2023-09-13T10:39:18.795Z,25.78
2023-09-13T10:42:02.847Z,25.88
2023-09-13T10:44:29.445Z,25.96
2023-09-13T10:46:57.189Z,26.04
2023-09-13T10:49:25.372Z,26.11
2023-09-13T10:51:54.659Z,26.17
2023-09-13T10:54:22.586Z,26.24
2023-09-13T10:56:49.447Z,26.26
2023-09-13T10:59:19.318Z,26.22
2023-09-13T11:01:49.009Z,26.12
2023-09-13T11:04:25.651Z,26.07
2023-09-13T11:06:54.654Z,26.00
2023-09-13T11:09:31.222Z,25.95
2023-09-13T11:11:59.235Z,25.84
2023-09-13T11:14:31.132Z,25.79
2023-09-13T11:17:10.124Z,25.75
2023-09-13T11:19:36.710Z,25.71
2023-09-13T11:22:04.939Z,25.65
2023-09-13T11:24:49.735Z,25.63
2023-09-13T11:27:19.705Z,25.60
2023-09-13T11:29:47.360Z,25.60
2023-09-13T11:32:18.607Z,25.58
2023-09-13T11:34:46.424Z,25.55
2023-09-13T11:37:14.344Z,25.52
2023-09-13T11:39:41.430Z,25.49
2023-09-13T11:42:22.807Z,25.47
2023-09-13T11:45:03.207Z,25.45
2023-09-13T11:47:38.019Z,25.43
2023-09-13T11:50:13.073Z,25.40
2023-09-13T11:53:18.202Z,25.38
2023-09-13T11:56:03.867Z,25.33
2023-09-13T11:58:48.363Z,25.30
2023-09-13T12:01:25.603Z,25.28
2023-09-13T12:04:24.017Z,25.26
2023-09-13T12:06:50.137Z,25.29
2023-09-13T12:09:25.208Z,25.32
2023-09-13T12:12:00.697Z,25.34
2023-09-13T12:14:40.609Z,25.40
2023-09-13T12:17:15.304Z,25.60
2023-09-13T12:19:41.871Z,25.73
2023-09-13T12:22:13.776Z,25.85
2023-09-13T12:24:51.124Z,26.00
2023-09-13T12:27:18.209Z,26.11
2023-09-13T12:29:45.780Z,26.17
2023-09-13T12:32:12.856Z,26.25
2023-09-13T12:34:39.408Z,26.31
2023-09-13T12:37:07.419Z,26.38
2023-09-13T12:39:34.826Z,26.38
2023-09-13T12:42:06.838Z,26.32
2023-09-13T12:44:36.674Z,26.25
2023-09-13T12:47:04.789Z,26.15
2023-09-13T12:49:31.355Z,26.08
2023-09-13T12:51:57.846Z,26.05
2023-09-13T12:54:24.673Z,26.04
2023-09-13T12:56:51.189Z,25.98
2023-09-13T12:59:17.633Z,25.92
2023-09-13T13:01:44.390Z,25.91
2023-09-13T13:04:12.462Z,26.00
2023-09-13T13:07:05.110Z,26.11
2023-09-13T13:09:31.623Z,26.15
2023-09-13T13:11:58.498Z,26.18
2023-09-13T13:14:28.115Z,26.09
2023-09-13T13:17:00.262Z,26.12
2023-09-13T13:22:12.661Z,26.14
2023-09-13T13:24:40.439Z,26.13
2023-09-13T13:27:07.514Z,26.08
2023-09-13T13:29:37.850Z,25.98
2023-09-13T13:32:06.025Z,25.91
2023-09-13T13:34:33.084Z,25.81
2023-09-13T13:36:59.623Z,25.73
2023-09-13T13:39:26.120Z,25.67
2023-09-13T13:41:52.722Z,25.57
2023-09-13T13:44:19.412Z,25.51
2023-09-13T13:46:46.106Z,25.43
2023-09-13T13:49:17.452Z,25.34
2023-09-13T13:51:46.440Z,25.27
2023-09-13T13:54:12.971Z,25.21
2023-09-13T13:56:41.445Z,25.18
2023-09-13T13:59:10.243Z,25.13
2023-09-13T14:01:36.881Z,25.07
2023-09-13T14:04:05.059Z,25.01
2023-09-13T14:06:31.678Z,24.95
2023-09-13T14:08:58.150Z,24.91
2023-09-13T14:11:24.928Z,24.83
2023-09-13T14:13:51.634Z,24.72
2023-09-13T14:16:18.202Z,24.69
2023-09-13T14:18:44.800Z,24.64
2023-09-13T14:21:11.423Z,24.58
2023-09-13T14:23:37.894Z,24.51
2023-09-13T14:26:05.007Z,24.48
2023-09-13T14:28:34.578Z,24.45
2023-09-13T14:31:01.065Z,24.42
2023-09-13T14:33:31.383Z,24.39
2023-09-13T14:35:58.108Z,24.39
2023-09-13T14:38:24.706Z,24.41
2023-09-13T14:40:51.448Z,24.41
2023-09-13T14:43:18.135Z,24.40
2023-09-13T14:45:44.603Z,24.40
2023-09-13T14:48:11.346Z,24.41
2023-09-13T14:50:37.926Z,24.38
2023-09-13T14:53:05.732Z,24.36
2023-09-13T14:55:33.188Z,24.34
2023-09-13T14:57:59.593Z,24.34
2023-09-13T15:00:26.058Z,24.36
2023-09-13T15:02:52.674Z,24.35
2023-09-13T15:05:19.287Z,24.36
2023-09-13T15:07:45.803Z,24.39
2023-09-13T15:10:12.895Z,24.38
2023-09-13T15:12:39.718Z,24.41
2023-09-13T15:15:06.647Z,24.40
2023-09-13T15:17:33.946Z,24.37
2023-09-13T15:20:00.592Z,24.35
2023-09-13T15:22:28.983Z,24.33
2023-09-13T15:24:56.066Z,24.30
2023-09-13T15:27:25.580Z,24.28
2023-09-13T15:29:52.182Z,24.25
2023-09-13T15:32:18.645Z,24.23
2023-09-13T15:34:45.052Z,24.21
2023-09-13T15:37:11.570Z,24.18
2023-09-13T15:39:40.140Z,24.11
2023-09-13T15:42:06.718Z,24.06
2023-09-13T15:44:33.184Z,24.01
2023-09-13T15:46:59.669Z,23.97
2023-09-13T15:49:26.708Z,23.95
2023-09-13T15:51:53.354Z,23.93
2023-09-13T15:54:20.254Z,23.90
2023-09-13T15:56:48.012Z,23.90
2023-09-13T15:59:14.540Z,23.91
2023-09-13T16:01:41.114Z,23.93
2023-09-13T16:04:08.665Z,23.90
2023-09-13T16:06:37.292Z,23.92
2023-09-13T16:09:05.047Z,23.93
2023-09-13T16:11:33.058Z,23.91
2023-09-13T16:13:59.698Z,23.90
2023-09-13T16:16:28.934Z,23.89
2023-09-13T16:18:55.709Z,23.87
2023-09-13T16:21:22.582Z,23.87
2023-09-13T16:23:48.998Z,23.84
2023-09-13T16:26:15.461Z,23.83
2023-09-13T16:28:42.091Z,23.84
2023-09-13T16:31:09.590Z,23.83
2023-09-13T16:33:37.181Z,23.85
2023-09-13T16:36:04.665Z,23.87
2023-09-13T16:38:31.157Z,23.84
2023-09-13T16:40:59.308Z,23.82
2023-09-13T16:43:26.048Z,23.79
2023-09-13T16:45:52.568Z,23.76
2023-09-13T16:48:31.777Z,23.73
2023-09-13T16:50:58.975Z,23.70
2023-09-13T16:53:25.466Z,23.68
2023-09-13T16:55:52.798Z,23.65
2023-09-13T16:58:19.225Z,23.62
2023-09-13T17:00:45.931Z,23.58
2023-09-13T17:03:12.639Z,23.57
2023-09-13T17:05:39.162Z,23.53
2023-09-13T17:08:06.493Z,23.49
2023-09-13T17:10:33.030Z,23.44
2023-09-13T17:12:59.596Z,23.41
2023-09-13T17:15:26.207Z,23.41
2023-09-13T17:17:52.737Z,23.47
2023-09-13T17:20:19.228Z,23.55
2023-09-13T17:22:45.825Z,23.61
2023-09-13T17:25:12.361Z,23.66
2023-09-13T17:27:38.839Z,23.71
2023-09-13T17:30:06.348Z,23.76
2023-09-13T17:32:33.013Z,23.80
2023-09-13T17:34:59.572Z,23.83
2023-09-13T17:37:29.916Z,23.88
2023-09-13T17:39:57.396Z,23.92
2023-09-13T17:42:24.317Z,23.93
2023-09-13T17:44:51.928Z,23.95
2023-09-13T17:47:22.215Z,23.98
2023-09-13T17:49:48.726Z,23.99
2023-09-13T17:52:15.177Z,24.01
2023-09-13T17:54:41.717Z,24.03
2023-09-13T17:57:08.497Z,24.04
2023-09-13T17:59:35.822Z,24.06
2023-09-13T18:02:02.772Z,24.06
2023-09-13T18:04:29.462Z,24.08
2023-09-13T18:06:56.020Z,24.08
2023-09-13T18:09:22.678Z,24.07
2023-09-13T18:11:52.706Z,24.05
2023-09-13T18:14:19.664Z,24.04
2023-09-13T18:16:46.325Z,24.03
2023-09-13T18:19:12.994Z,24.02
2023-09-13T18:21:39.647Z,24.02
2023-09-13T18:24:09.153Z,24.02
2023-09-13T18:26:35.987Z,24.03
2023-09-13T18:29:02.463Z,24.01
2023-09-13T18:31:29.043Z,24.03
2023-09-13T18:33:55.552Z,24.03
2023-09-13T18:36:22.235Z,24.02
2023-09-13T18:38:50.530Z,24.03
2023-09-13T18:41:17.044Z,24.03
2023-09-13T18:43:43.515Z,24.03
2023-09-13T18:46:10.024Z,24.02
2023-09-13T18:48:36.599Z,24.02
2023-09-13T18:51:05.074Z,24.03
2023-09-13T18:53:31.614Z,24.02
2023-09-13T18:55:59.650Z,24.03
2023-09-13T18:58:29.323Z,24.02
2023-09-13T19:00:57.224Z,24.04
2023-09-13T19:03:24.916Z,24.02
2023-09-13T19:06:06.407Z,24.03
2023-09-13T19:08:32.846Z,24.03
2023-09-13T19:11:03.023Z,24.02
2023-09-13T19:13:30.697Z,24.03
2023-09-13T19:16:02.288Z,24.05
2023-09-13T19:18:33.891Z,24.03
2023-09-13T19:21:02.266Z,24.02
2023-09-13T19:23:31.322Z,24.03
2023-09-13T19:25:59.656Z,24.02
2023-09-13T19:28:27.954Z,24.01
2023-09-13T19:30:56.320Z,24.00
2023-09-13T19:33:26.473Z,23.99
2023-09-13T19:35:54.458Z,23.97
2023-09-13T19:38:29.172Z,23.98
2023-09-13T19:40:56.603Z,23.96
2023-09-13T19:43:24.125Z,23.95
2023-09-13T19:45:51.285Z,23.95
2023-09-13T19:48:17.980Z,23.95
2023-09-13T19:50:53.701Z,23.95
2023-09-13T19:53:21.138Z,23.94
2023-09-13T19:55:47.656Z,23.93
2023-09-13T19:58:14.626Z,23.92
2023-09-13T20:00:43.341Z,23.93
2023-09-13T20:03:09.911Z,23.92
2023-09-13T20:05:36.773Z,23.91
2023-09-13T20:08:04.742Z,23.91
2023-09-13T20:10:31.244Z,23.91
2023-09-13T20:12:57.751Z,23.91
2023-09-13T20:15:26.718Z,23.94
2023-09-13T20:17:53.616Z,23.92
2023-09-13T20:20:20.392Z,23.94
2023-09-13T20:22:46.867Z,23.93
2023-09-13T20:25:15.710Z,23.93
2023-09-13T20:27:42.484Z,23.93
2023-09-13T20:30:10.231Z,23.94
2023-09-13T20:32:36.724Z,23.95
2023-09-13T20:35:06.595Z,23.94
2023-09-13T20:37:33.089Z,23.96
2023-09-13T20:40:01.333Z,23.95
2023-09-13T20:42:28.581Z,23.94
2023-09-13T20:44:55.198Z,23.95
2023-09-13T20:47:23.059Z,23.93
2023-09-13T20:49:49.547Z,23.90
2023-09-13T20:52:16.019Z,23.86
2023-09-13T20:54:42.537Z,23.84
2023-09-13T20:57:09.016Z,23.82
2023-09-13T20:59:36.377Z,23.82
2023-09-13T21:02:04.796Z,23.80
2023-09-13T21:04:33.228Z,23.78
2023-09-13T21:07:00.028Z,23.74
2023-09-13T21:09:29.477Z,23.72
2023-09-13T21:11:56.075Z,23.72
2023-09-13T21:14:22.690Z,23.69
2023-09-13T21:16:49.226Z,23.68
2023-09-13T21:19:15.863Z,23.65
2023-09-13T21:21:42.438Z,23.65
2023-09-13T21:24:09.058Z,23.63
2023-09-13T21:26:36.474Z,23.61
2023-09-13T21:29:02.997Z,23.61
2023-09-13T21:31:29.509Z,23.59
2023-09-13T21:33:56.052Z,23.58
2023-09-13T21:36:23.838Z,23.57
2023-09-13T21:38:50.944Z,23.55
2023-09-13T21:41:17.450Z,23.54
2023-09-13T21:43:43.964Z,23.53
2023-09-13T21:46:10.573Z,23.52
2023-09-13T21:48:41.846Z,23.50
2023-09-13T21:51:09.663Z,23.50
2023-09-13T21:53:36.620Z,23.51
2023-09-13T21:56:04.120Z,23.49
2023-09-13T21:58:31.239Z,23.47
2023-09-13T22:00:59.520Z,23.45
2023-09-13T22:03:32.698Z,23.44
2023-09-13T22:06:02.203Z,23.43
2023-09-13T22:08:28.702Z,23.40
2023-09-13T22:11:09.934Z,23.41
2023-09-13T22:13:37.571Z,23.39
2023-09-13T22:16:06.579Z,23.38
2023-09-13T22:18:33.259Z,23.35
2023-09-13T22:21:02.114Z,23.34
2023-09-13T22:23:31.798Z,23.33
2023-09-13T22:25:59.066Z,23.32
2023-09-13T22:28:27.041Z,23.31
2023-09-13T22:31:00.734Z,23.29
2023-09-13T22:33:29.618Z,23.28
2023-09-13T22:35:57.065Z,23.28
2023-09-13T22:38:25.533Z,23.26
2023-09-13T22:40:52.837Z,23.24
2023-09-13T22:43:19.324Z,23.22
2023-09-13T22:45:45.803Z,23.21
2023-09-13T22:48:12.411Z,23.20
2023-09-13T22:50:39.122Z,23.18
2023-09-13T22:53:05.833Z,23.18
2023-09-13T22:55:32.674Z,23.17
2023-09-13T22:57:59.558Z,23.16
2023-09-13T23:00:26.211Z,23.15
2023-09-13T23:02:53.016Z,23.13
2023-09-13T23:05:21.262Z,23.12
2023-09-13T23:07:54.669Z,23.11
2023-09-13T23:10:21.978Z,23.11
2023-09-13T23:12:48.489Z,23.10
2023-09-13T23:15:15.613Z,23.07
2023-09-13T23:17:42.106Z,23.08
2023-09-13T23:20:11.548Z,23.06
2023-09-13T23:22:38.023Z,23.06
2023-09-13T23:25:05.485Z,23.04
2023-09-13T23:27:32.069Z,23.04
2023-09-13T23:29:58.561Z,23.02
2023-09-13T23:32:26.142Z,23.02
2023-09-13T23:34:52.625Z,23.02
2023-09-13T23:37:20.729Z,23.00
2023-09-13T23:39:47.141Z,22.99
2023-09-13T23:42:13.561Z,22.98
2023-09-13T23:44:39.995Z,22.98
2023-09-13T23:47:06.711Z,22.96
2023-09-13T23:49:35.485Z,22.96
2023-09-13T23:52:01.963Z,22.96
2023-09-13T23:54:28.564Z,22.95
2023-09-13T23:56:54.960Z,22.93
2023-09-13T23:59:22.136Z,22.92
